createdAt,value
2019-02-21T00:01:22.041Z,4.90
2019-02-21T00:03:51.030Z,4.80
2019-02-21T00:06:20.436Z,4.90
2019-02-21T00:08:49.368Z,4.80
2019-02-21T00:11:18.340Z,4.80
2019-02-21T00:13:47.228Z,4.70
2019-02-21T00:16:16.184Z,4.60
2019-02-21T00:18:45.028Z,4.60
2019-02-21T00:21:13.908Z,4.60
2019-02-21T00:23:42.824Z,4.60
2019-02-21T00:26:11.812Z,4.50
2019-02-21T00:28:40.726Z,4.40
2019-02-21T00:31:09.617Z,4.30
2019-02-21T00:33:38.416Z,4.40
2019-02-21T00:36:07.497Z,4.50
2019-02-21T00:38:36.483Z,4.30
2019-02-21T00:41:06.016Z,4.40
2019-02-21T00:43:34.824Z,4.40
2019-02-21T00:46:03.864Z,4.40
2019-02-21T00:48:32.775Z,4.30
2019-02-21T00:51:01.593Z,4.30
2019-02-21T00:53:30.386Z,4.30
2019-02-21T00:55:59.183Z,4.30
2019-02-21T00:58:28.174Z,4.30
2019-02-21T01:00:57.148Z,4.30
2019-02-21T01:03:26.236Z,4.20
2019-02-21T01:05:55.102Z,4.10
2019-02-21T01:08:23.899Z,4.00
2019-02-21T01:10:52.828Z,4.00
2019-02-21T01:13:21.716Z,4.10
2019-02-21T01:15:50.489Z,4.10
2019-02-21T01:18:19.506Z,4.10
2019-02-21T01:20:48.388Z,4.10
2019-02-21T01:23:17.224Z,4.20
2019-02-21T01:25:46.026Z,4.20
2019-02-21T01:28:14.906Z,4.10
2019-02-21T01:30:43.701Z,4.10
2019-02-21T01:33:12.556Z,4.20
2019-02-21T01:35:41.352Z,4.10
2019-02-21T01:38:10.289Z,4.10
2019-02-21T01:40:39.192Z,4.20
2019-02-21T01:43:08.048Z,4.20
2019-02-21T01:45:36.940Z,4.20
2019-02-21T01:48:05.842Z,4.20
2019-02-21T01:50:34.785Z,4.20
2019-02-21T01:53:03.600Z,4.20
2019-02-21T01:55:32.488Z,4.20
2019-02-21T01:58:01.296Z,4.20
2019-02-21T02:00:30.252Z,4.30
2019-02-21T02:02:59.212Z,4.30
2019-02-21T02:05:28.025Z,4.30
2019-02-21T02:07:57.006Z,4.20
2019-02-21T02:10:26.053Z,4.30
2019-02-21T02:12:54.936Z,4.30
2019-02-21T02:15:23.932Z,4.30
2019-02-21T02:17:52.734Z,4.20
2019-02-21T02:20:21.888Z,4.00
2019-02-21T02:22:50.707Z,4.00
2019-02-21T02:25:19.644Z,3.90
2019-02-21T02:27:48.639Z,3.70
2019-02-21T02:30:17.657Z,3.70
2019-02-21T02:32:46.573Z,3.70
2019-02-21T02:35:15.559Z,3.70
2019-02-21T02:37:44.474Z,3.60
2019-02-21T02:40:13.023Z,3.60
2019-02-21T02:42:41.904Z,3.60
2019-02-21T02:45:10.901Z,3.50
2019-02-21T02:47:39.764Z,3.60
2019-02-21T02:50:08.792Z,3.70
2019-02-21T02:52:37.837Z,3.70
2019-02-21T02:55:06.868Z,3.70
2019-02-21T02:57:35.800Z,3.70
2019-02-21T03:00:05.841Z,3.80
2019-02-21T03:02:34.741Z,3.80
2019-02-21T03:05:03.945Z,3.90
2019-02-21T03:07:32.779Z,4.00
2019-02-21T03:10:01.825Z,4.00
2019-02-21T03:12:30.660Z,3.90
2019-02-21T03:14:59.428Z,3.90
2019-02-21T03:17:28.300Z,3.90
2019-02-21T03:19:57.192Z,3.80
2019-02-21T03:22:25.996Z,3.80
2019-02-21T03:24:55.031Z,3.70
2019-02-21T03:27:23.902Z,3.80
2019-02-21T03:29:52.768Z,3.80
2019-02-21T03:32:21.614Z,3.80
2019-02-21T03:34:50.476Z,3.80
2019-02-21T03:37:19.542Z,3.80
2019-02-21T03:39:48.440Z,3.80
2019-02-21T03:42:17.681Z,3.80
2019-02-21T03:44:46.624Z,3.80
2019-02-21T03:47:15.512Z,3.80
2019-02-21T03:49:44.312Z,3.80
2019-02-21T03:52:13.172Z,3.70
2019-02-21T03:54:42.128Z,3.70
2019-02-21T03:57:11.048Z,3.80
2019-02-21T03:59:40.037Z,3.80
2019-02-21T04:02:08.973Z,3.90
2019-02-21T04:04:37.948Z,3.90
2019-02-21T04:07:06.897Z,3.90
2019-02-21T04:09:35.788Z,3.90
2019-02-21T04:12:04.750Z,3.90
2019-02-21T04:14:34.040Z,4.00
2019-02-21T04:17:02.932Z,4.10
2019-02-21T04:19:31.780Z,4.20
2019-02-21T04:22:00.557Z,4.20
2019-02-21T04:24:29.372Z,4.20
2019-02-21T04:26:58.273Z,4.10
2019-02-21T04:29:27.186Z,4.10
2019-02-21T04:31:56.065Z,4.00
2019-02-21T04:34:24.945Z,4.10
2019-02-21T04:36:53.940Z,4.10
2019-02-21T04:39:22.716Z,4.10
2019-02-21T04:41:51.613Z,4.00
2019-02-21T04:44:20.553Z,4.00
2019-02-21T04:46:49.344Z,3.90
2019-02-21T04:49:18.261Z,3.90
2019-02-21T04:51:47.118Z,3.90
2019-02-21T04:54:16.024Z,4.00
2019-02-21T04:56:45.136Z,4.00
2019-02-21T04:59:14.020Z,4.10
2019-02-21T05:01:43.242Z,4.10
2019-02-21T05:04:12.239Z,4.10
2019-02-21T05:06:41.328Z,4.10
2019-02-21T05:09:10.136Z,4.10
2019-02-21T05:11:39.324Z,4.10
2019-02-21T05:14:08.238Z,4.10
2019-02-21T05:16:37.181Z,3.90
2019-02-21T05:19:06.176Z,3.80
2019-02-21T05:21:35.237Z,3.60
2019-02-21T05:24:04.100Z,3.60
2019-02-21T05:26:49.541Z,3.50
2019-02-21T05:29:18.354Z,3.50
2019-02-21T05:31:58.003Z,3.50
2019-02-21T05:34:45.953Z,3.40
2019-02-21T05:37:33.928Z,3.50
2019-02-21T05:40:20.526Z,3.60
2019-02-21T05:43:07.573Z,3.60
2019-02-21T05:45:54.003Z,3.60
2019-02-21T05:48:28.664Z,3.50
2019-02-21T05:51:06.532Z,3.50
2019-02-21T05:53:54.426Z,3.50
2019-02-21T05:56:31.161Z,3.50
2019-02-21T05:59:06.113Z,3.50
2019-02-21T06:01:42.753Z,3.60
2019-02-21T06:04:30.724Z,3.70
2019-02-21T06:07:36.881Z,3.70
2019-02-21T06:10:27.715Z,3.80
2019-02-21T06:13:14.238Z,3.90
2019-02-21T06:16:00.812Z,3.90
2019-02-21T06:18:50.538Z,4.00
2019-02-21T06:21:29.360Z,4.00
2019-02-21T06:24:17.270Z,4.10
2019-02-21T06:26:54.477Z,4.10
2019-02-21T06:29:30.330Z,4.10
2019-02-21T06:31:59.252Z,4.10
2019-02-21T06:34:28.148Z,4.10
2019-02-21T06:36:56.932Z,4.20
2019-02-21T06:39:26.027Z,4.20
2019-02-21T06:41:59.483Z,4.20
2019-02-21T06:44:25.581Z,4.30
2019-02-21T06:46:54.408Z,4.30
2019-02-21T06:49:32.171Z,4.30
2019-02-21T06:51:53.969Z,4.40
2019-02-21T06:54:23.072Z,4.40
2019-02-21T06:56:52.180Z,4.50
2019-02-21T06:59:23.555Z,4.40
2019-02-21T07:01:51.584Z,4.40
2019-02-21T07:04:20.646Z,4.50
2019-02-21T07:06:49.583Z,4.50
2019-02-21T07:09:18.418Z,4.40
2019-02-21T07:11:47.404Z,4.40
2019-02-21T07:14:16.334Z,4.50
2019-02-21T07:16:45.222Z,4.50
2019-02-21T07:19:14.048Z,4.50
2019-02-21T07:21:42.957Z,4.50
2019-02-21T07:24:11.856Z,4.50
2019-02-21T07:26:42.781Z,4.50
2019-02-21T07:29:11.213Z,4.50
2019-02-21T07:31:40.196Z,4.50
2019-02-21T07:34:09.112Z,4.60
2019-02-21T07:36:37.948Z,4.60
2019-02-21T07:39:16.936Z,4.70
2019-02-21T07:41:38.174Z,4.70
2019-02-21T07:44:11.995Z,4.70
2019-02-21T07:46:37.980Z,4.70
2019-02-21T07:49:06.880Z,4.80
2019-02-21T07:51:36.137Z,4.90
2019-02-21T07:54:05.832Z,4.90
2019-02-21T07:56:41.977Z,4.90
2019-02-21T07:59:05.339Z,5.00
2019-02-21T08:01:34.232Z,5.00
2019-02-21T08:04:03.207Z,5.10
2019-02-21T08:06:32.013Z,5.10
2019-02-21T08:09:00.852Z,5.20
2019-02-21T08:11:29.840Z,5.20
2019-02-21T08:13:58.668Z,5.20
2019-02-21T08:16:27.630Z,5.20
2019-02-21T08:18:56.640Z,5.30
2019-02-21T08:21:25.454Z,5.40
2019-02-21T08:23:54.295Z,5.50
2019-02-21T08:26:23.525Z,5.50
2019-02-21T08:28:52.467Z,5.50
2019-02-21T08:31:21.341Z,5.60
2019-02-21T08:33:59.509Z,5.60
2019-02-21T08:36:28.512Z,5.70
2019-02-21T08:38:57.353Z,5.70
2019-02-21T08:41:26.370Z,5.80
2019-02-21T08:43:57.346Z,5.90
2019-02-21T08:46:25.996Z,5.90
2019-02-21T08:48:54.823Z,6.00
2019-02-21T08:51:23.812Z,6.10
2019-02-21T08:53:52.620Z,6.20
2019-02-21T08:56:21.840Z,6.20
2019-02-21T08:58:50.832Z,6.20
2019-02-21T09:01:19.730Z,6.30
2019-02-21T09:03:48.688Z,6.40
2019-02-21T09:06:17.669Z,6.40
2019-02-21T09:08:46.519Z,6.50
2019-02-21T09:11:15.474Z,6.50
2019-02-21T09:13:44.540Z,6.50
2019-02-21T09:16:13.453Z,6.60
2019-02-21T09:18:42.351Z,6.70
2019-02-21T09:21:11.196Z,6.80
2019-02-21T09:23:40.159Z,6.90
2019-02-21T09:26:09.175Z,7.00
2019-02-21T09:28:38.296Z,7.10
2019-02-21T09:31:07.294Z,7.20
2019-02-21T09:33:37.239Z,7.20
2019-02-21T09:36:06.389Z,7.30
2019-02-21T09:38:35.618Z,7.30
2019-02-21T09:41:04.874Z,7.30
2019-02-21T09:43:33.890Z,7.30
2019-02-21T09:46:02.809Z,7.40
2019-02-21T09:48:31.706Z,7.40
2019-02-21T09:51:00.599Z,7.40
2019-02-21T09:53:29.484Z,7.50
2019-02-21T09:55:58.419Z,7.50
2019-02-21T09:58:27.215Z,7.60
2019-02-21T10:00:56.193Z,7.80
2019-02-21T10:03:24.981Z,7.90
2019-02-21T10:05:53.824Z,8.10
2019-02-21T10:08:22.709Z,8.20
2019-02-21T10:10:51.623Z,8.50
2019-02-21T10:13:20.520Z,8.60
2019-02-21T10:15:50.068Z,8.70
2019-02-21T10:18:18.960Z,8.90
2019-02-21T10:20:48.052Z,8.90
2019-02-21T10:23:17.048Z,8.90
2019-02-21T10:25:45.896Z,8.90
2019-02-21T10:28:14.716Z,9.00
2019-02-21T10:30:43.620Z,9.00
2019-02-21T10:33:12.588Z,9.00
2019-02-21T10:35:41.764Z,8.90
2019-02-21T10:38:10.572Z,8.90
2019-02-21T10:40:39.577Z,9.00
2019-02-21T10:43:08.496Z,9.00
2019-02-21T10:45:47.324Z,9.00
2019-02-21T10:48:07.964Z,9.00
2019-02-21T10:50:36.782Z,9.00
2019-02-21T10:53:05.987Z,9.10
2019-02-21T10:55:34.986Z,9.20
2019-02-21T10:58:04.140Z,9.30
2019-02-21T11:00:33.184Z,9.40
2019-02-21T11:03:02.180Z,9.50
2019-02-21T11:05:31.156Z,9.70
2019-02-21T11:08:00.527Z,9.80
2019-02-21T11:10:29.537Z,10.00
2019-02-21T11:12:58.545Z,10.10
2019-02-21T11:15:27.748Z,10.10
2019-02-21T11:17:56.652Z,10.20
2019-02-21T11:20:25.627Z,10.30
2019-02-21T11:22:54.513Z,10.40
2019-02-21T11:25:23.488Z,10.50
2019-02-21T11:27:52.404Z,10.50
2019-02-21T11:30:21.415Z,10.50
2019-02-21T11:32:50.388Z,10.50
2019-02-21T11:35:19.687Z,10.50
2019-02-21T11:37:48.612Z,10.60
2019-02-21T11:40:18.180Z,10.70
2019-02-21T11:42:47.233Z,10.70
2019-02-21T11:45:16.356Z,10.70
2019-02-21T11:47:45.286Z,10.80
2019-02-21T11:50:15.166Z,10.80
2019-02-21T11:52:44.085Z,10.90
2019-02-21T11:55:16.012Z,10.90
2019-02-21T11:57:45.028Z,11.00
2019-02-21T12:00:17.100Z,11.10
2019-02-21T12:02:46.076Z,11.20
2019-02-21T12:05:17.862Z,11.30
2019-02-21T12:07:45.564Z,11.50
2019-02-21T12:10:14.456Z,11.60
2019-02-21T12:12:43.484Z,11.70
2019-02-21T12:15:12.891Z,11.80
2019-02-21T12:17:42.956Z,11.90
2019-02-21T12:20:13.330Z,12.00
2019-02-21T12:22:42.112Z,12.20
2019-02-21T12:25:12.697Z,12.30
2019-02-21T12:27:41.604Z,12.40
2019-02-21T12:30:13.012Z,12.50
2019-02-21T12:32:41.921Z,12.60
2019-02-21T12:35:11.343Z,12.60
2019-02-21T12:37:40.436Z,12.70
2019-02-21T12:40:11.823Z,12.70
2019-02-21T12:42:40.709Z,12.80
2019-02-21T12:45:11.840Z,12.90
2019-02-21T12:47:49.759Z,13.00
2019-02-21T12:50:11.448Z,13.10
2019-02-21T12:52:40.425Z,13.20
2019-02-21T12:55:09.465Z,13.40
2019-02-21T12:57:38.420Z,13.50
2019-02-21T13:00:12.944Z,13.60
2019-02-21T13:02:42.321Z,13.60
2019-02-21T13:05:11.620Z,13.80
2019-02-21T13:07:40.436Z,14.00
2019-02-21T13:10:11.626Z,14.00
2019-02-21T13:12:40.448Z,14.00
2019-02-21T13:15:10.952Z,14.10
2019-02-21T13:17:39.826Z,14.20
2019-02-21T13:20:09.744Z,14.20
2019-02-21T13:22:38.624Z,14.40
2019-02-21T13:25:08.396Z,14.40
2019-02-21T13:27:37.557Z,14.40
2019-02-21T13:30:08.685Z,14.40
2019-02-21T13:32:37.532Z,14.50
2019-02-21T13:35:07.081Z,14.40
2019-02-21T13:37:36.172Z,14.40
2019-02-21T13:40:05.766Z,14.50
2019-02-21T13:42:34.676Z,14.50
2019-02-21T13:45:03.557Z,14.60
2019-02-21T13:47:32.352Z,14.60
2019-02-21T13:50:01.273Z,14.70
2019-02-21T13:52:30.274Z,14.70
2019-02-21T13:54:59.253Z,14.70
2019-02-21T13:57:28.191Z,14.80
2019-02-21T13:59:57.086Z,14.80
2019-02-21T14:02:25.885Z,14.90
2019-02-21T14:04:54.759Z,14.80
2019-02-21T14:07:23.752Z,14.80
2019-02-21T14:09:52.658Z,14.80
2019-02-21T14:12:21.681Z,14.80
2019-02-21T14:14:50.673Z,14.70
2019-02-21T14:17:19.641Z,14.90
2019-02-21T14:19:48.881Z,15.30
2019-02-21T14:22:17.794Z,16.00
2019-02-21T14:24:46.883Z,16.40
2019-02-21T14:27:15.890Z,16.80
2019-02-21T14:29:44.958Z,17.20
2019-02-21T14:32:13.876Z,17.20
2019-02-21T14:34:42.925Z,17.60
2019-02-21T14:37:11.741Z,17.90
2019-02-21T14:39:40.607Z,18.00
2019-02-21T14:42:09.490Z,18.10
2019-02-21T14:44:38.454Z,18.20
2019-02-21T14:47:08.123Z,18.30
2019-02-21T14:49:37.133Z,18.40
2019-02-21T14:52:06.204Z,18.30
2019-02-21T14:54:37.901Z,18.10
2019-02-21T14:57:06.349Z,18.10
2019-02-21T14:59:35.201Z,18.00
2019-02-21T15:02:06.190Z,18.00
2019-02-21T15:04:38.130Z,17.60
2019-02-21T15:07:08.781Z,17.70
2019-02-21T15:09:37.669Z,17.90
2019-02-21T15:12:06.608Z,18.10
2019-02-21T15:14:36.569Z,17.90
2019-02-21T15:17:05.848Z,17.90
2019-02-21T15:19:35.486Z,18.10
2019-02-21T15:22:04.474Z,18.00
2019-02-21T15:24:33.544Z,18.10
2019-02-21T15:27:08.412Z,18.20
2019-02-21T15:29:33.380Z,17.90
2019-02-21T15:32:10.764Z,17.80
2019-02-21T15:34:33.180Z,17.70
2019-02-21T15:37:02.204Z,17.70
2019-02-21T15:39:31.172Z,17.60
2019-02-21T15:42:00.021Z,17.30
2019-02-21T15:44:29.660Z,17.10
2019-02-21T15:46:58.960Z,17.10
2019-02-21T15:49:27.839Z,16.90
2019-02-21T15:51:56.802Z,17.00
2019-02-21T15:54:25.828Z,17.10
2019-02-21T15:56:55.267Z,17.00
2019-02-21T15:59:24.928Z,17.00
2019-02-21T16:01:53.973Z,16.80
2019-02-21T16:04:22.863Z,16.80
2019-02-21T16:06:52.097Z,16.60
2019-02-21T16:09:21.421Z,16.60
2019-02-21T16:11:50.259Z,16.40
2019-02-21T16:14:19.044Z,16.20
2019-02-21T16:16:50.547Z,16.10
2019-02-21T16:19:19.450Z,16.20
2019-02-21T16:21:48.237Z,16.00
2019-02-21T16:24:17.113Z,15.90
2019-02-21T16:26:46.236Z,15.90
2019-02-21T16:29:15.171Z,15.90
2019-02-21T16:31:44.062Z,15.80
2019-02-21T16:34:12.857Z,15.70
2019-02-21T16:36:42.115Z,15.60
2019-02-21T16:39:12.714Z,15.50
2019-02-21T16:41:44.260Z,15.30
2019-02-21T16:44:12.543Z,15.30
2019-02-21T16:46:41.477Z,15.00
2019-02-21T16:49:10.596Z,15.00
2019-02-21T16:51:39.476Z,15.00
2019-02-21T16:54:08.376Z,14.90
2019-02-21T16:56:37.191Z,14.80
2019-02-21T16:59:06.184Z,14.70
2019-02-21T17:01:35.162Z,14.60
2019-02-21T17:04:04.500Z,14.50
2019-02-21T17:06:33.392Z,14.40
2019-02-21T17:09:02.400Z,14.40
2019-02-21T17:11:31.383Z,14.40
2019-02-21T17:14:00.596Z,14.50
2019-02-21T17:16:29.523Z,14.40
2019-02-21T17:18:58.584Z,14.30
2019-02-21T17:21:27.384Z,14.30
2019-02-21T17:23:56.272Z,14.20
2019-02-21T17:26:25.384Z,14.20
2019-02-21T17:28:54.282Z,14.20
2019-02-21T17:33:43.106Z,14.10
2019-02-21T17:36:12.017Z,14.00
2019-02-21T17:38:40.824Z,13.80
2019-02-21T17:41:09.723Z,13.70
2019-02-21T17:43:38.570Z,13.70
2019-02-21T17:46:07.481Z,13.60
2019-02-21T17:48:36.296Z,13.50
2019-02-21T17:51:05.396Z,13.50
2019-02-21T17:53:34.587Z,13.50
2019-02-21T17:56:03.816Z,13.40
2019-02-21T17:58:32.685Z,13.40
2019-02-21T18:01:01.588Z,13.30
2019-02-21T18:03:30.677Z,13.30
2019-02-21T18:05:59.700Z,13.30
2019-02-21T18:08:28.857Z,13.30
2019-02-21T18:10:57.661Z,13.30
2019-02-21T18:13:26.448Z,13.20
2019-02-21T18:15:55.376Z,13.20
2019-02-21T18:18:24.308Z,13.20
2019-02-21T18:20:53.156Z,13.20
2019-02-21T18:23:22.042Z,13.20
2019-02-21T18:25:55.436Z,13.10
2019-02-21T18:28:24.438Z,13.10
2019-02-21T18:30:53.499Z,13.10
2019-02-21T18:33:22.476Z,13.20
2019-02-21T18:35:51.377Z,13.10
2019-02-21T18:38:20.267Z,13.10
2019-02-21T18:40:49.176Z,13.10
2019-02-21T18:43:18.178Z,13.10
2019-02-21T18:45:47.067Z,13.00
2019-02-21T18:48:15.981Z,13.00
2019-02-21T18:50:44.772Z,13.00
2019-02-21T18:53:13.676Z,13.00
2019-02-21T18:55:42.645Z,12.90
2019-02-21T18:58:11.657Z,12.80
2019-02-21T19:00:40.835Z,12.70
2019-02-21T19:03:09.876Z,12.60
2019-02-21T19:05:38.849Z,12.60
2019-02-21T19:08:07.740Z,12.70
2019-02-21T19:10:36.860Z,12.70
2019-02-21T19:13:08.216Z,12.70
2019-02-21T19:15:37.952Z,12.60
2019-02-21T19:18:06.586Z,12.50
2019-02-21T19:20:35.596Z,12.50
2019-02-21T19:23:04.649Z,12.40
2019-02-21T19:25:33.558Z,12.40
2019-02-21T19:28:02.572Z,12.30
2019-02-21T19:30:38.163Z,12.20
2019-02-21T19:33:07.197Z,12.20
2019-02-21T19:35:36.209Z,12.20
2019-02-21T19:38:10.297Z,12.10
2019-02-21T19:40:35.980Z,12.00
2019-02-21T19:43:04.994Z,12.00
2019-02-21T19:45:34.124Z,11.90
2019-02-21T19:48:04.223Z,11.80
2019-02-21T19:50:33.540Z,11.70
2019-02-21T19:53:02.653Z,11.60
2019-02-21T19:55:31.464Z,11.60
2019-02-21T19:58:00.581Z,11.60
2019-02-21T20:00:30.856Z,11.70
2019-02-21T20:02:59.984Z,11.60
2019-02-21T20:05:29.147Z,11.50
2019-02-21T20:08:07.872Z,11.50
2019-02-21T20:10:28.690Z,11.40
2019-02-21T20:13:00.445Z,11.40
2019-02-21T20:15:29.575Z,11.40
2019-02-21T20:17:58.587Z,11.40
2019-02-21T20:20:28.016Z,11.40
2019-02-21T20:22:57.085Z,11.40
2019-02-21T20:25:26.248Z,11.50
2019-02-21T20:27:55.137Z,11.50
2019-02-21T20:30:25.204Z,11.40
2019-02-21T20:32:54.096Z,11.40
2019-02-21T20:35:22.988Z,11.30
2019-02-21T20:37:52.076Z,11.30
2019-02-21T20:40:21.075Z,11.20
2019-02-21T20:42:50.112Z,11.10
2019-02-21T20:45:19.089Z,11.10
2019-02-21T20:47:48.126Z,11.00
2019-02-21T20:50:17.250Z,10.90
2019-02-21T20:52:46.098Z,10.90
2019-02-21T20:55:15.720Z,10.90
2019-02-21T20:57:44.895Z,11.00
2019-02-21T21:00:14.885Z,11.10
2019-02-21T21:02:44.100Z,11.10
2019-02-21T21:05:13.688Z,11.10
2019-02-21T21:07:42.640Z,11.10
2019-02-21T21:10:12.980Z,11.10
2019-02-21T21:12:41.987Z,11.10
2019-02-21T21:15:11.532Z,11.00
2019-02-21T21:17:40.411Z,11.00
2019-02-21T21:20:16.641Z,10.90
2019-02-21T21:22:41.391Z,10.90
2019-02-21T21:25:12.160Z,10.80
2019-02-21T21:30:16.296Z,10.60
2019-02-21T21:32:45.347Z,10.50
2019-02-21T21:35:14.652Z,10.50
2019-02-21T21:37:43.585Z,10.40
2019-02-21T21:40:13.509Z,10.30
2019-02-21T21:42:42.420Z,10.20
2019-02-21T21:45:14.064Z,10.20
2019-02-21T21:47:42.944Z,10.10
2019-02-21T21:50:13.441Z,10.10
2019-02-21T21:52:42.379Z,10.10
2019-02-21T21:55:11.356Z,10.10
2019-02-21T21:57:40.329Z,10.10
2019-02-21T22:00:12.940Z,10.20
2019-02-21T22:02:42.447Z,10.20
2019-02-21T22:05:11.476Z,10.20
2019-02-21T22:07:40.509Z,10.20
2019-02-21T22:10:10.484Z,10.30
2019-02-21T22:12:39.684Z,10.30
2019-02-21T22:15:10.184Z,10.30
2019-02-21T22:17:39.096Z,10.30
2019-02-21T22:20:08.230Z,10.30
2019-02-21T22:22:37.136Z,10.30
2019-02-21T22:25:06.956Z,10.30
2019-02-21T22:27:35.932Z,10.30
2019-02-21T22:30:05.353Z,10.30
2019-02-21T22:32:34.412Z,10.40
2019-02-21T22:35:03.408Z,10.40
2019-02-21T22:37:32.280Z,10.40
2019-02-21T22:40:01.266Z,10.50
2019-02-21T22:42:30.108Z,10.50
2019-02-21T22:44:59.064Z,10.60
2019-02-21T22:47:27.868Z,10.60
2019-02-21T22:49:56.949Z,10.70
2019-02-21T22:52:26.137Z,10.70
2019-02-21T22:54:55.044Z,10.70
2019-02-21T22:57:23.877Z,10.70
2019-02-21T22:59:52.689Z,10.70
2019-02-21T23:02:21.629Z,10.70
2019-02-21T23:05:27.984Z,10.60
2019-02-21T23:08:20.811Z,10.50
2019-02-21T23:10:49.834Z,10.40
2019-02-21T23:13:19.267Z,10.40
2019-02-21T23:15:48.230Z,10.40
2019-02-21T23:18:17.244Z,10.40
2019-02-21T23:20:46.060Z,10.50
2019-02-21T23:23:14.968Z,10.60
2019-02-21T23:25:43.982Z,10.70
2019-02-21T23:28:13.152Z,10.80
2019-02-21T23:30:42.854Z,10.80
2019-02-21T23:33:11.696Z,10.90
2019-02-21T23:35:40.564Z,10.90
2019-02-21T23:38:09.458Z,10.90
2019-02-21T23:40:38.261Z,10.90
2019-02-21T23:43:07.268Z,10.90
2019-02-21T23:45:36.340Z,10.90
2019-02-21T23:48:05.228Z,11.00
2019-02-21T23:50:34.105Z,11.00
2019-02-21T23:53:02.966Z,11.00
2019-02-21T23:55:32.016Z,11.00
2019-02-21T23:58:00.995Z,11.00
